Time;durP1;ratioP1;P1;durP2;ratioP2;P2;SDS_P1;SDS_P2;PMS_P1;PMS_P2;Temp;Humidity;BMP_temperature;BMP_pressure;BME280_temperature;BME280_humidity;BME280_pressure;Samples;Min_cycle;Max_cycle;Signal;HPM_P1;HPM_P2
2022/07/22 00:01:05;;;;;;;4.70;3.50;;;17.20;99.90;;;;;;5035138;28;20264;-82
2022/07/22 00:03:30;;;;;;;5.97;3.30;;;17.20;99.90;;;;;;5035132;28;20855;-82
2022/07/22 00:05:56;;;;;;;3.70;3.40;;;17.20;99.90;;;;;;5034823;28;20174;-82
2022/07/22 00:08:21;;;;;;;3.63;3.33;;;17.30;99.90;;;;;;5034887;28;20269;-81
2022/07/22 00:10:47;;;;;;;4.53;2.90;;;17.30;99.90;;;;;;5035816;28;20202;-81
2022/07/22 00:13:13;;;;;;;3.40;3.10;;;17.30;99.90;;;;;;5035875;28;20538;-80
2022/07/22 00:15:39;;;;;;;4.27;3.20;;;17.30;99.90;;;;;;5037040;28;20178;-81
2022/07/22 00:18:05;;;;;;;2.90;2.70;;;17.20;99.90;;;;;;5036742;28;20174;-81
2022/07/22 00:20:30;;;;;;;4.60;2.80;;;17.30;99.90;;;;;;5036118;28;20292;-81
2022/07/22 00:22:56;;;;;;;2.97;2.70;;;17.30;99.90;;;;;;5036500;28;20536;-81
2022/07/22 00:25:21;;;;;;;5.17;2.60;;;17.30;99.90;;;;;;5036182;28;20628;-81
2022/07/22 00:27:47;;;;;;;2.70;2.50;;;17.20;99.90;;;;;;5037229;28;20200;-81
2022/07/22 00:30:13;;;;;;;2.93;2.63;;;17.30;99.90;;;;;;5038223;28;20235;-81
2022/07/22 00:32:39;;;;;;;4.13;3.00;;;17.20;99.90;;;;;;5036324;28;20182;-81
2022/07/22 00:35:05;;;;;;;3.07;2.87;;;17.20;99.90;;;;;;5035121;28;20194;-81
2022/07/22 00:37:31;;;;;;;6.30;3.00;;;17.10;99.90;;;;;;5035877;28;20178;-81
2022/07/22 00:39:56;;;;;;;4.53;3.13;;;17.00;99.90;;;;;;5036334;28;20567;-81
2022/07/22 00:42:22;;;;;;;2.73;2.53;;;17.00;99.90;;;;;;5036991;28;20175;-81
2022/07/22 00:44:48;;;;;;;3.47;3.13;;;16.90;99.90;;;;;;5036235;28;20202;-81
2022/07/22 00:47:13;;;;;;;2.87;2.67;;;16.90;99.90;;;;;;5035790;28;20700;-81
2022/07/22 00:49:39;;;;;;;3.47;3.00;;;16.80;99.90;;;;;;5036400;28;20198;-81
2022/07/22 00:52:05;;;;;;;3.23;2.93;;;16.70;99.90;;;;;;5035593;28;20184;-81
2022/07/22 00:54:32;;;;;;;4.73;2.90;;;16.70;99.90;;;;;;5035973;28;20291;-82
2022/07/22 00:56:58;;;;;;;3.70;3.40;;;16.80;99.90;;;;;;5038842;28;20170;-82
2022/07/22 00:59:25;;;;;;;5.40;3.70;;;16.70;99.90;;;;;;5036578;28;20622;-81
2022/07/22 01:01:51;;;;;;;3.63;3.30;;;16.60;99.90;;;;;;5037665;28;20178;-81
2022/07/22 01:04:17;;;;;;;6.27;3.90;;;16.50;99.90;;;;;;5037801;28;20210;-81
2022/07/22 01:06:44;;;;;;;7.17;4.23;;;16.60;99.90;;;;;;5037822;28;20183;-81
2022/07/22 01:09:10;;;;;;;5.90;4.53;;;16.50;99.90;;;;;;5037650;28;20178;-81
2022/07/22 01:11:36;;;;;;;8.80;4.90;;;16.50;99.90;;;;;;5037650;28;20201;-82
2022/07/22 01:14:02;;;;;;;10.13;5.63;;;16.60;99.90;;;;;;5036777;28;20202;-81
2022/07/22 01:16:28;;;;;;;8.30;5.77;;;16.60;99.90;;;;;;5037394;28;20180;-81
2022/07/22 01:18:54;;;;;;;10.73;6.03;;;16.50;99.90;;;;;;5037072;28;20233;-81
2022/07/22 01:21:20;;;;;;;12.07;5.83;;;16.50;99.90;;;;;;5036440;28;20210;-81
2022/07/22 01:23:45;;;;;;;11.13;6.00;;;16.40;99.90;;;;;;5035198;28;20560;-81
2022/07/22 01:26:12;;;;;;;9.10;5.30;;;16.40;99.90;;;;;;5035678;28;20182;-81
2022/07/22 01:28:38;;;;;;;9.60;6.00;;;16.50;99.90;;;;;;5034448;28;20174;-81
2022/07/22 01:31:04;;;;;;;9.60;5.83;;;16.50;99.90;;;;;;5037125;28;20174;-81
2022/07/22 01:33:30;;;;;;;10.40;5.67;;;16.50;99.90;;;;;;5038907;28;20219;-81
2022/07/22 01:35:55;;;;;;;7.47;5.60;;;16.50;99.90;;;;;;5037665;28;20175;-82
2022/07/22 01:38:22;;;;;;;7.63;5.70;;;16.40;99.90;;;;;;5037980;28;20174;-81
2022/07/22 01:40:47;;;;;;;9.40;5.50;;;16.40;99.90;;;;;;5035519;28;20205;-81
2022/07/22 01:43:17;;;;;;;12.83;6.33;;;16.50;99.90;;;;;;5037141;28;20588;-81
2022/07/22 01:45:47;;;;;;;9.73;5.90;;;16.50;99.90;;;;;;5038201;28;20171;-81
2022/07/22 01:48:13;;;;;;;9.47;5.87;;;16.50;99.90;;;;;;5037173;28;20178;-81
2022/07/22 01:50:40;;;;;;;14.93;5.00;;;16.50;99.90;;;;;;5039876;28;20185;-81
2022/07/22 01:53:06;;;;;;;6.07;5.20;;;16.50;99.90;;;;;;5037036;28;20180;-81
2022/07/22 01:55:32;;;;;;;8.33;4.83;;;16.60;99.90;;;;;;5040590;28;20190;-81
2022/07/22 01:57:58;;;;;;;11.13;5.20;;;16.50;99.90;;;;;;5034576;28;20185;-81
2022/07/22 02:00:23;;;;;;;10.17;4.73;;;16.60;99.90;;;;;;5034382;28;20206;-81
2022/07/22 02:02:49;;;;;;;6.90;4.53;;;16.60;99.90;;;;;;5034870;28;20659;-81
2022/07/22 02:05:15;;;;;;;9.27;4.90;;;16.50;99.90;;;;;;5034838;28;20198;-81
2022/07/22 02:07:41;;;;;;;7.33;4.47;;;16.50;99.90;;;;;;5033253;28;20213;-81
2022/07/22 02:10:07;;;;;;;6.80;4.03;;;16.50;99.90;;;;;;5033760;28;20190;-82
2022/07/22 02:12:33;;;;;;;5.27;4.77;;;16.50;99.90;;;;;;5031902;28;20558;-81
2022/07/22 02:14:58;;;;;;;6.93;4.30;;;16.50;99.90;;;;;;5032186;28;20201;-81
2022/07/22 02:17:25;;;;;;;7.30;3.90;;;16.40;99.90;;;;;;5032066;28;20277;-82
2022/07/22 02:19:51;;;;;;;8.63;4.50;;;16.50;99.90;;;;;;5032254;28;20202;-81
2022/07/22 02:22:16;;;;;;;11.10;4.23;;;16.50;99.90;;;;;;5031513;28;20177;-82
2022/07/22 02:24:42;;;;;;;7.33;4.57;;;16.50;99.90;;;;;;5032753;28;20690;-81
2022/07/22 02:27:08;;;;;;;12.30;4.50;;;16.50;99.90;;;;;;5032480;28;20170;-81
2022/07/22 02:29:34;;;;;;;7.37;4.90;;;16.50;99.90;;;;;;5032233;28;20193;-81
2022/07/22 02:31:59;;;;;;;5.53;4.50;;;16.40;99.90;;;;;;5031121;28;20203;-81
2022/07/22 02:34:25;;;;;;;9.70;4.73;;;16.50;99.90;;;;;;5032200;28;20198;-81
2022/07/22 02:36:51;;;;;;;7.03;4.73;;;16.40;99.90;;;;;;5032196;28;20179;-81
2022/07/22 02:39:17;;;;;;;7.60;5.13;;;16.40;99.90;;;;;;5032435;28;20194;-81
2022/07/22 02:41:43;;;;;;;7.83;4.83;;;16.50;99.90;;;;;;5033289;28;20546;-81
2022/07/22 02:44:09;;;;;;;15.30;5.03;;;16.50;99.90;;;;;;5035062;28;20762;-81
2022/07/22 02:46:35;;;;;;;7.07;4.63;;;16.50;99.90;;;;;;5034899;28;20273;-81
2022/07/22 02:49:02;;;;;;;7.17;4.50;;;16.50;99.90;;;;;;5036304;28;20201;-81
2022/07/22 02:51:27;;;;;;;10.00;4.73;;;16.50;99.90;;;;;;5036010;28;20182;-81
2022/07/22 02:53:53;;;;;;;7.23;4.63;;;16.40;99.90;;;;;;5035779;28;20328;-81
2022/07/22 02:56:19;;;;;;;8.90;5.53;;;16.50;99.90;;;;;;5035800;28;20185;-81
2022/07/22 02:58:46;;;;;;;8.83;4.90;;;16.40;99.90;;;;;;5039101;28;20669;-81
2022/07/22 03:01:12;;;;;;;12.33;5.10;;;16.40;99.90;;;;;;5042005;28;20170;-81
2022/07/22 03:03:38;;;;;;;10.10;5.20;;;16.50;99.90;;;;;;5046211;28;20679;-82
2022/07/22 03:06:04;;;;;;;6.77;4.87;;;16.40;99.90;;;;;;5045702;28;20177;-81
2022/07/22 03:08:30;;;;;;;10.50;5.20;;;16.40;99.90;;;;;;5044617;28;20197;-81
2022/07/22 03:10:56;;;;;;;9.20;5.20;;;16.40;99.90;;;;;;5045397;28;20676;-82
2022/07/22 03:13:21;;;;;;;9.77;4.87;;;16.50;99.90;;;;;;5039698;28;20164;-81
2022/07/22 03:15:47;;;;;;;8.63;4.90;;;16.50;99.90;;;;;;5039695;28;20670;-81
2022/07/22 03:18:13;;;;;;;11.07;5.27;;;16.50;99.90;;;;;;5039673;28;20178;-81
2022/07/22 03:20:38;;;;;;;9.97;5.40;;;16.50;99.90;;;;;;5037982;28;20288;-81
2022/07/22 03:23:04;;;;;;;9.27;5.10;;;16.40;99.90;;;;;;5037752;28;20177;-81
2022/07/22 03:25:32;;;;;;;11.67;5.03;;;16.40;99.90;;;;;;5038775;28;20189;-81
2022/07/22 03:27:58;;;;;;;13.87;5.60;;;16.40;99.90;;;;;;5039723;28;20176;-81
2022/07/22 03:30:24;;;;;;;9.77;4.60;;;16.50;99.90;;;;;;5039348;28;20190;-81
2022/07/22 03:32:50;;;;;;;9.63;5.20;;;16.50;99.90;;;;;;5038077;28;20202;-81
2022/07/22 03:35:16;;;;;;;8.70;4.83;;;16.40;99.90;;;;;;5037657;28;20562;-81
2022/07/22 03:37:42;;;;;;;8.47;4.97;;;16.30;99.90;;;;;;5037358;28;20193;-81
2022/07/22 03:40:09;;;;;;;9.07;4.80;;;16.40;99.90;;;;;;5035896;28;20197;-82
2022/07/22 03:42:35;;;;;;;10.03;4.70;;;16.40;99.90;;;;;;5036181;28;20541;-81
2022/07/22 03:45:01;;;;;;;12.07;4.43;;;16.30;99.90;;;;;;5037397;28;20200;-81
2022/07/22 03:47:26;;;;;;;9.20;4.13;;;16.30;99.90;;;;;;5038452;28;20166;-81
2022/07/22 03:49:52;;;;;;;15.53;4.70;;;16.30;99.90;;;;;;5037421;28;20522;-81
2022/07/22 03:52:18;;;;;;;10.83;4.50;;;16.30;99.90;;;;;;5035689;28;20265;-81
2022/07/22 03:54:44;;;;;;;12.00;4.17;;;16.30;99.90;;;;;;5036858;28;20193;-81
2022/07/22 03:57:10;;;;;;;20.07;4.00;;;16.20;99.90;;;;;;5034918;28;20642;-81
2022/07/22 03:59:36;;;;;;;10.97;4.30;;;16.20;99.90;;;;;;5034379;28;20227;-81
2022/07/22 04:02:03;;;;;;;16.57;4.43;;;16.20;99.90;;;;;;5033972;28;20178;-81
2022/07/22 04:04:29;;;;;;;9.60;3.87;;;16.10;99.90;;;;;;5034143;28;20625;-81
2022/07/22 04:06:55;;;;;;;23.10;4.60;;;16.20;99.90;;;;;;5035811;28;20167;-83
2022/07/22 04:09:21;;;;;;;16.27;4.73;;;16.10;99.90;;;;;;5034065;28;20274;-83
2022/07/22 04:11:47;;;;;;;10.17;4.53;;;16.20;99.90;;;;;;5034459;28;20225;-83
2022/07/22 04:14:13;;;;;;;11.17;4.10;;;16.30;99.90;;;;;;5034462;28;20204;-83
2022/07/22 04:16:38;;;;;;;14.57;4.03;;;16.30;99.90;;;;;;5034460;28;20174;-82
2022/07/22 04:19:04;;;;;;;11.80;4.30;;;16.20;99.90;;;;;;5033967;28;20205;-83
2022/07/22 04:21:30;;;;;;;11.60;3.80;;;16.20;99.90;;;;;;5033714;28;20170;-84
2022/07/22 04:23:56;;;;;;;11.53;4.30;;;16.30;99.90;;;;;;5033096;28;20216;-83
2022/07/22 04:26:22;;;;;;;13.83;4.23;;;16.30;99.90;;;;;;5034664;28;20587;-82
2022/07/22 04:28:48;;;;;;;13.67;4.27;;;16.30;99.90;;;;;;5034406;28;20220;-83
2022/07/22 04:31:14;;;;;;;8.17;3.77;;;16.20;99.90;;;;;;5034500;28;20229;-82
2022/07/22 04:33:39;;;;;;;15.80;4.17;;;16.20;99.90;;;;;;5034034;28;20201;-83
2022/07/22 04:36:05;;;;;;;13.63;4.80;;;16.20;99.90;;;;;;5033451;28;20174;-83
2022/07/22 04:38:31;;;;;;;11.80;4.70;;;16.40;99.90;;;;;;5034049;28;20181;-83
2022/07/22 04:40:57;;;;;;;15.53;5.17;;;16.30;99.90;;;;;;5033736;28;20205;-81
2022/07/22 04:43:23;;;;;;;16.97;4.90;;;16.30;99.90;;;;;;5036089;28;20651;-81
2022/07/22 04:45:49;;;;;;;14.43;4.70;;;16.30;99.90;;;;;;5036216;28;20182;-81
2022/07/22 04:48:15;;;;;;;17.93;4.83;;;16.30;99.90;;;;;;5036738;28;20174;-82
2022/07/22 04:50:41;;;;;;;15.70;4.60;;;16.20;99.90;;;;;;5035668;28;20188;-81
2022/07/22 04:53:07;;;;;;;12.23;5.03;;;16.30;99.90;;;;;;5036382;28;20178;-81
2022/07/22 04:55:32;;;;;;;17.97;4.80;;;16.30;99.90;;;;;;5036130;28;20178;-81
2022/07/22 04:57:58;;;;;;;11.93;4.23;;;16.30;99.90;;;;;;5036775;28;20179;-81
2022/07/22 05:00:24;;;;;;;21.67;4.07;;;16.40;99.90;;;;;;5037428;28;20300;-81
2022/07/22 05:02:50;;;;;;;15.47;3.93;;;16.40;99.90;;;;;;5038032;28;20171;-81
2022/07/22 05:05:16;;;;;;;14.07;4.30;;;16.40;99.90;;;;;;5037933;28;20201;-81
2022/07/22 05:07:42;;;;;;;16.67;3.90;;;16.40;99.90;;;;;;5037637;28;20178;-81
2022/07/22 05:10:08;;;;;;;15.57;4.07;;;16.40;99.90;;;;;;5040276;28;20178;-81
2022/07/22 05:12:34;;;;;;;12.30;3.53;;;16.50;99.90;;;;;;5038680;28;20214;-81
2022/07/22 05:14:59;;;;;;;15.67;3.70;;;16.60;99.90;;;;;;5038792;28;20745;-81
2022/07/22 05:17:25;;;;;;;10.90;2.87;;;16.50;99.90;;;;;;5037786;28;20249;-81
2022/07/22 05:19:50;;;;;;;15.47;3.40;;;16.60;99.90;;;;;;5039144;28;20201;-81
2022/07/22 05:22:16;;;;;;;11.33;3.10;;;16.70;99.90;;;;;;5039012;28;20268;-81
2022/07/22 05:24:42;;;;;;;10.23;3.40;;;16.60;99.90;;;;;;5037673;28;20198;-81
2022/07/22 05:27:08;;;;;;;12.03;3.00;;;16.80;99.90;;;;;;5037592;28;20170;-81
2022/07/22 05:29:33;;;;;;;9.57;3.03;;;16.60;99.90;;;;;;5038493;28;20207;-81
2022/07/22 05:31:59;;;;;;;15.23;3.53;;;16.80;99.90;;;;;;5038226;28;20220;-80
2022/07/22 05:34:25;;;;;;;15.00;3.40;;;16.70;99.90;;;;;;5038363;28;20194;-81
2022/07/22 05:36:51;;;;;;;11.73;3.10;;;16.80;99.90;;;;;;5038415;28;20226;-81
2022/07/22 05:39:16;;;;;;;12.47;2.70;;;16.80;99.90;;;;;;5038255;28;20623;-81
2022/07/22 05:41:42;;;;;;;12.93;3.13;;;16.90;99.90;;;;;;5039707;28;20213;-81
2022/07/22 05:44:07;;;;;;;16.03;3.90;;;16.90;99.90;;;;;;5039504;28;20221;-81
2022/07/22 05:46:33;;;;;;;13.43;3.20;;;17.00;99.90;;;;;;5041294;28;20639;-81
2022/07/22 05:48:59;;;;;;;10.53;3.20;;;17.00;99.90;;;;;;5039497;28;20201;-81
2022/07/22 05:51:24;;;;;;;12.17;2.87;;;17.00;99.90;;;;;;5039110;28;20173;-82
2022/07/22 05:53:50;;;;;;;9.57;2.80;;;17.00;99.90;;;;;;5038525;28;20232;-81
2022/07/22 05:56:16;;;;;;;10.10;3.10;;;16.90;99.90;;;;;;5039534;28;20170;-81
2022/07/22 05:58:42;;;;;;;10.53;2.63;;;16.90;99.90;;;;;;5033926;28;20185;-82
2022/07/22 06:01:09;;;;;;;14.87;3.27;;;16.90;99.90;;;;;;5033754;28;20188;-83
2022/07/22 06:03:35;;;;;;;10.17;3.03;;;16.90;99.90;;;;;;5033674;28;20194;-83
2022/07/22 06:06:02;;;;;;;13.27;3.37;;;17.10;99.90;;;;;;5034563;28;20520;-83
2022/07/22 06:08:28;;;;;;;10.10;2.80;;;17.10;99.90;;;;;;5033513;28;20182;-82
2022/07/22 06:10:54;;;;;;;15.80;2.97;;;17.20;99.90;;;;;;5033005;28;20182;-80
2022/07/22 06:13:19;;;;;;;8.73;3.17;;;17.10;99.90;;;;;;5033745;28;20193;-82
2022/07/22 06:15:45;;;;;;;8.57;2.67;;;17.30;99.90;;;;;;5034007;28;20182;-82
2022/07/22 06:18:11;;;;;;;6.77;2.40;;;17.50;99.90;;;;;;5038744;28;20178;-81
2022/07/22 06:20:37;;;;;;;5.87;2.50;;;17.40;99.90;;;;;;5038600;28;20269;-81
2022/07/22 06:23:03;;;;;;;7.53;2.43;;;17.30;99.90;;;;;;5037207;28;20174;-81
2022/07/22 06:25:29;;;;;;;7.03;2.90;;;17.30;99.90;;;;;;5037596;28;20201;-82
2022/07/22 06:27:55;;;;;;;6.00;2.07;;;17.40;99.90;;;;;;5037281;28;20178;-82
2022/07/22 06:30:20;;;;;;;4.67;1.90;;;17.60;99.90;;;;;;5030847;28;20224;-80
2022/07/22 06:32:46;;;;;;;5.97;2.07;;;18.00;99.90;;;;;;5031806;28;20178;-81
2022/07/22 06:35:12;;;;;;;3.73;1.70;;;18.10;99.90;;;;;;5036662;28;20205;-80
2022/07/22 06:37:38;;;;;;;9.10;2.20;;;18.10;99.90;;;;;;5036619;28;20176;-80
2022/07/22 06:40:04;;;;;;;6.90;2.03;;;18.20;99.90;;;;;;5036245;28;20678;-80
2022/07/22 06:42:30;;;;;;;6.93;2.20;;;18.20;99.90;;;;;;5036171;28;20217;-79
2022/07/22 06:44:56;;;;;;;8.73;2.00;;;18.10;99.90;;;;;;5037502;28;20194;-79
2022/07/22 06:47:22;;;;;;;3.07;1.33;;;18.10;99.90;;;;;;5036176;28;20182;-78
2022/07/22 06:49:48;;;;;;;33.70;3.63;;;18.10;99.90;;;;;;5036386;28;20272;-78
2022/07/22 06:52:13;;;;;;;5.13;1.70;;;18.20;99.90;;;;;;5036331;28;20209;-78
2022/07/22 06:54:39;;;;;;;2.33;1.33;;;18.40;99.90;;;;;;5036508;28;20194;-79
2022/07/22 06:57:04;;;;;;;3.23;1.20;;;18.90;99.90;;;;;;5038669;28;20200;-78
2022/07/22 06:59:30;;;;;;;5.43;1.57;;;18.80;99.90;;;;;;5042058;28;20198;-79
2022/07/22 07:01:56;;;;;;;4.57;1.43;;;18.50;99.90;;;;;;5039291;28;20178;-79
2022/07/22 07:04:21;;;;;;;4.47;1.83;;;18.40;99.90;;;;;;5042725;28;20205;-79
2022/07/22 07:06:47;;;;;;;8.23;1.60;;;18.30;99.90;;;;;;5042885;28;20174;-80
2022/07/22 07:09:13;;;;;;;5.60;1.80;;;18.20;99.90;;;;;;5041119;28;20185;-81
2022/07/22 07:11:38;;;;;;;4.77;1.33;;;18.30;99.90;;;;;;5038100;28;20646;-80
2022/07/22 07:14:04;;;;;;;6.37;2.10;;;18.30;99.90;;;;;;5021730;28;20230;-81
2022/07/22 07:16:30;;;;;;;4.30;1.40;;;18.30;99.90;;;;;;5015194;28;20183;-81
2022/07/22 07:18:55;;;;;;;4.77;1.47;;;18.40;99.90;;;;;;5028154;28;20181;-79
2022/07/22 07:21:21;;;;;;;5.03;1.50;;;18.40;99.90;;;;;;5023940;28;20631;-79
2022/07/22 07:23:47;;;;;;;4.33;1.60;;;18.40;99.90;;;;;;5023351;28;20222;-79
2022/07/22 07:26:13;;;;;;;9.90;1.73;;;18.70;99.90;;;;;;5014320;28;20233;-79
2022/07/22 07:28:39;;;;;;;4.40;1.60;;;18.60;99.90;;;;;;5014466;28;20179;-81
2022/07/22 07:31:04;;;;;;;4.77;1.67;;;18.30;99.90;;;;;;5013493;28;20622;-82
2022/07/22 07:33:30;;;;;;;4.77;1.83;;;18.30;99.90;;;;;;5016025;28;20253;-80
2022/07/22 07:35:56;;;;;;;7.33;1.80;;;18.40;99.90;;;;;;5015027;28;20186;-80
2022/07/22 07:38:21;;;;;;;5.73;2.40;;;18.50;99.90;;;;;;5014749;28;20189;-80
2022/07/22 07:40:47;;;;;;;7.93;1.80;;;18.40;99.90;;;;;;5014950;28;20214;-79
2022/07/22 07:43:13;;;;;;;8.10;2.00;;;18.40;99.90;;;;;;5014768;28;20171;-79
2022/07/22 07:45:39;;;;;;;3.07;1.87;;;18.40;99.90;;;;;;5014604;28;20235;-79
2022/07/22 07:48:06;;;;;;;7.80;1.93;;;18.50;99.90;;;;;;5014443;28;20179;-79
2022/07/22 07:50:31;;;;;;;4.33;1.70;;;18.40;99.90;;;;;;5014757;28;20261;-80
2022/07/22 07:52:57;;;;;;;4.13;1.77;;;18.20;99.90;;;;;;5014175;28;20624;-80
2022/07/22 07:55:24;;;;;;;8.50;1.97;;;18.10;99.90;;;;;;5014740;28;20248;-80
2022/07/22 07:57:50;;;;;;;4.40;2.13;;;18.20;99.90;;;;;;5023612;28;20182;-81
2022/07/22 08:00:17;;;;;;;5.43;1.90;;;18.20;99.90;;;;;;5022368;28;20275;-78
2022/07/22 08:02:43;;;;;;;4.37;1.80;;;18.20;99.90;;;;;;5021076;28;20253;-77
2022/07/22 08:05:09;;;;;;;4.33;1.70;;;18.30;99.90;;;;;;5020407;28;20281;-78
2022/07/22 08:07:35;;;;;;;5.37;1.73;;;18.30;99.90;;;;;;5021847;28;20226;-78
2022/07/22 08:10:02;;;;;;;6.33;1.90;;;18.30;99.90;;;;;;5019006;28;20182;-79
2022/07/22 08:12:28;;;;;;;7.20;2.03;;;18.30;99.90;;;;;;5020497;28;20242;-79
2022/07/22 08:14:54;;;;;;;7.37;1.90;;;18.30;99.90;;;;;;5032862;28;20297;-79
2022/07/22 08:17:19;;;;;;;5.73;1.67;;;18.20;99.90;;;;;;5035520;28;20189;-79
2022/07/22 08:19:45;;;;;;;3.40;1.77;;;18.30;99.90;;;;;;5034131;28;20209;-79
2022/07/22 08:22:11;;;;;;;4.33;1.80;;;18.40;99.90;;;;;;5033879;28;20209;-79
2022/07/22 08:24:36;;;;;;;6.23;2.00;;;18.20;99.90;;;;;;5034561;28;20197;-79
2022/07/22 08:27:02;;;;;;;6.87;2.10;;;18.20;99.90;;;;;;5034324;28;20476;-79
2022/07/22 08:29:28;;;;;;;5.67;1.93;;;18.20;99.90;;;;;;5034040;28;20178;-79
2022/07/22 08:31:53;;;;;;;3.43;2.00;;;18.40;99.90;;;;;;5034990;28;20178;-79
2022/07/22 08:34:19;;;;;;;5.00;1.73;;;18.40;99.90;;;;;;5025913;28;20202;-81
2022/07/22 08:36:45;;;;;;;7.87;1.70;;;18.60;99.90;;;;;;5025613;28;20593;-79
2022/07/22 08:39:10;;;;;;;2.47;1.70;;;18.50;99.90;;;;;;5023125;28;20765;-79
2022/07/22 08:41:38;;;;;;;2.80;1.83;;;18.50;99.90;;;;;;5026067;28;20171;-79
2022/07/22 08:44:06;;;;;;;4.97;1.70;;;18.60;99.90;;;;;;5025449;28;20191;-80
2022/07/22 08:46:31;;;;;;;3.77;2.20;;;18.70;99.90;;;;;;5024811;28;20220;-79
2022/07/22 08:49:00;;;;;;;4.60;2.00;;;18.70;99.90;;;;;;5026210;28;20273;-80
2022/07/22 08:51:26;;;;;;;3.80;1.97;;;18.70;99.90;;;;;;5025068;28;20184;-80
2022/07/22 08:53:52;;;;;;;2.87;1.90;;;18.60;99.90;;;;;;5022954;28;20202;-80
2022/07/22 08:56:18;;;;;;;3.87;1.70;;;18.70;99.90;;;;;;5022808;28;20262;-80
2022/07/22 08:58:43;;;;;;;4.00;2.20;;;18.60;99.90;;;;;;5026091;28;20181;-79
2022/07/22 09:01:10;;;;;;;6.57;1.90;;;18.80;99.90;;;;;;5019177;28;20202;-80
2022/07/22 09:03:55;;;;;;;7.57;2.27;;;18.90;99.90;;;;;;5027949;28;20194;-79
2022/07/22 09:06:23;;;;;;;5.63;1.80;;;19.00;99.90;;;;;;5033680;28;20180;-80
2022/07/22 09:08:59;;;;;;;10.00;1.80;;;19.00;99.90;;;;;;5031775;28;20184;-79
2022/07/22 09:11:28;;;;;;;5.13;1.90;;;18.90;99.90;;;;;;5032824;28;20185;-80
2022/07/22 09:13:54;;;;;;;5.23;2.07;;;19.10;99.90;;;;;;5033072;28;20198;-79
2022/07/22 09:16:46;;;;;;;4.83;2.03;;;19.00;99.90;;;;;;5033738;28;20654;-80
2022/07/22 09:19:13;;;;;;;2.47;1.90;;;19.00;99.90;;;;;;5032489;28;20576;-79
2022/07/22 09:21:42;;;;;;;7.17;2.27;;;19.20;99.90;;;;;;5032672;28;20185;-79
2022/07/22 09:24:08;;;;;;;4.43;1.80;;;19.20;99.90;;;;;;5033193;28;20390;-79
2022/07/22 09:26:38;;;;;;;4.97;1.83;;;19.10;99.90;;;;;;5032612;28;20200;-78
2022/07/22 09:29:05;;;;;;;5.27;2.23;;;19.20;99.90;;;;;;5032352;28;20559;-78
2022/07/22 09:31:35;;;;;;;7.03;2.13;;;19.30;99.90;;;;;;5033004;28;20249;-78
2022/07/22 09:34:02;;;;;;;4.63;2.10;;;19.10;99.90;;;;;;5031424;28;20189;-78
2022/07/22 09:36:28;;;;;;;4.03;1.70;;;19.10;99.90;;;;;;5030017;28;20174;-77
2022/07/22 09:38:54;;;;;;;3.93;2.13;;;19.30;99.90;;;;;;5029914;28;20181;-76
2022/07/22 09:41:20;;;;;;;5.17;1.97;;;19.10;99.90;;;;;;5030459;28;20169;-78
2022/07/22 09:43:46;;;;;;;5.67;1.87;;;19.20;99.90;;;;;;5031241;28;20197;-78
2022/07/22 09:46:12;;;;;;;7.67;2.00;;;19.20;99.90;;;;;;5021632;28;20186;-78
2022/07/22 09:48:39;;;;;;;9.57;2.30;;;19.30;99.90;;;;;;5024319;28;20182;-79
2022/07/22 09:51:05;;;;;;;5.17;1.80;;;19.70;99.90;;;;;;5026422;28;20178;-79
2022/07/22 09:53:32;;;;;;;3.83;1.90;;;19.40;99.90;;;;;;5033955;28;20193;-78
2022/07/22 09:56:05;;;;;;;2.67;2.17;;;19.40;99.90;;;;;;5031065;28;20208;-78
2022/07/22 09:58:31;;;;;;;7.45;2.28;;;19.50;99.90;;;;;;5021807;28;20178;-78
2022/07/22 10:01:04;;;;;;;7.17;2.20;;;19.60;99.90;;;;;;5022543;28;20196;-78
2022/07/22 10:03:32;;;;;;;5.88;2.30;;;19.60;99.90;;;;;;5023470;28;20192;-78
2022/07/22 10:05:59;;;;;;;5.40;2.00;;;19.80;99.90;;;;;;5025682;28;20210;-78
2022/07/22 10:08:26;;;;;;;3.67;2.23;;;19.90;99.90;;;;;;5024272;28;20285;-78
2022/07/22 10:10:53;;;;;;;7.43;2.53;;;20.00;99.90;;;;;;5024638;28;20192;-78
2022/07/22 10:13:19;;;;;;;4.55;2.42;;;19.90;99.90;;;;;;5027897;28;20246;-78
2022/07/22 10:15:46;;;;;;;3.65;2.15;;;19.50;99.90;;;;;;5023279;28;20960;-78
2022/07/22 10:18:19;;;;;;;7.40;1.92;;;19.60;99.90;;;;;;5027066;28;20681;-78
2022/07/22 10:20:45;;;;;;;4.60;2.00;;;20.10;99.90;;;;;;5015312;28;20257;-77
2022/07/22 10:23:12;;;;;;;4.93;2.00;;;19.70;99.90;;;;;;5015916;28;20183;-78
2022/07/22 10:25:54;;;;;;;3.20;1.90;;;19.90;99.90;;;;;;5015687;28;20174;-78
2022/07/22 10:28:22;;;;;;;4.10;1.77;;;19.80;99.90;;;;;;5016874;28;20167;-78
2022/07/22 10:30:48;;;;;;;5.88;1.83;;;19.80;99.90;;;;;;5016551;28;20175;-78
2022/07/22 10:33:19;;;;;;;6.38;1.85;;;19.80;99.90;;;;;;5016375;28;20174;-78
2022/07/22 10:36:04;;;;;;;5.20;1.90;;;19.90;99.90;;;;;;5015735;28;20201;-77
2022/07/22 10:38:31;;;;;;;6.22;2.50;;;19.90;99.90;;;;;;5016788;28;20663;-78
2022/07/22 10:41:00;;;;;;;7.88;2.30;;;19.90;99.90;;;;;;5017681;28;20210;-80
2022/07/22 10:43:47;;;;;;;6.35;2.20;;;20.10;99.90;;;;;;5016346;28;20171;-80
2022/07/22 10:46:14;;;;;;;4.30;2.15;;;20.10;99.90;;;;;;5016323;28;20273;-80
2022/07/22 10:48:39;;;;;;;7.53;2.33;;;20.10;99.90;;;;;;5015882;28;20167;-79
2022/07/22 10:51:09;;;;;;;11.18;2.60;;;20.20;99.90;;;;;;5016969;28;20229;-80
2022/07/22 10:53:46;;;;;;;7.75;2.80;;;20.10;99.90;;;;;;5017718;28;20556;-79
2022/07/22 10:56:20;;;;;;;5.75;2.72;;;20.30;99.90;;;;;;5015590;28;20235;-78
2022/07/22 10:58:47;;;;;;;5.82;2.42;;;20.00;99.90;;;;;;5015554;28;20162;-79
2022/07/22 11:01:15;;;;;;;7.82;2.30;;;20.00;99.90;;;;;;5014606;28;20798;-79
2022/07/22 11:03:43;;;;;;;8.23;2.70;;;19.70;99.90;;;;;;5014765;28;20201;-79
2022/07/22 11:06:20;;;;;;;5.22;2.17;;;20.00;99.90;;;;;;5015583;28;20167;-78
2022/07/22 11:08:50;;;;;;;4.82;2.40;;;20.20;99.90;;;;;;5014496;28;20215;-78
2022/07/22 11:11:17;;;;;;;9.55;3.83;;;20.20;99.90;;;;;;5014305;28;20190;-78
2022/07/22 11:13:44;;;;;;;6.88;2.53;;;20.10;99.90;;;;;;5014814;28;20225;-78
2022/07/22 11:16:24;;;;;;;6.65;2.17;;;20.00;99.90;;;;;;5014519;28;20279;-78
2022/07/22 11:18:52;;;;;;;4.28;2.30;;;20.30;99.90;;;;;;5014827;28;20269;-78
2022/07/22 11:21:23;;;;;;;5.75;2.17;;;19.90;99.90;;;;;;5014222;28;20202;-79
2022/07/22 11:23:51;;;;;;;5.45;2.00;;;19.40;99.90;;;;;;5014636;28;20194;-78
2022/07/22 11:26:20;;;;;;;8.00;2.15;;;19.70;99.90;;;;;;5016216;28;20163;-78
2022/07/22 11:28:46;;;;;;;7.93;2.08;;;19.90;99.90;;;;;;5014978;28;20178;-78
2022/07/22 11:31:17;;;;;;;4.65;2.15;;;20.00;99.90;;;;;;5014741;28;20179;-79
2022/07/22 11:33:46;;;;;;;6.85;2.20;;;20.00;99.90;;;;;;5014158;28;20217;-78
2022/07/22 11:36:12;;;;;;;6.15;2.10;;;20.10;99.90;;;;;;5014978;28;20198;-78
2022/07/22 11:38:50;;;;;;;5.15;2.50;;;20.20;99.90;;;;;;5015177;28;20171;-79
2022/07/22 11:41:18;;;;;;;7.70;2.22;;;20.10;99.90;;;;;;5014991;28;20269;-79
2022/07/22 11:43:46;;;;;;;6.95;2.50;;;20.10;99.90;;;;;;5015056;28;20230;-78
2022/07/22 11:46:13;;;;;;;3.25;2.10;;;20.30;99.90;;;;;;5014341;28;20670;-78
2022/07/22 11:48:40;;;;;;;6.15;2.30;;;20.00;99.90;;;;;;5014775;28;20171;-79
2022/07/22 11:51:10;;;;;;;6.25;2.33;;;20.20;99.90;;;;;;5014665;28;20236;-78
2022/07/22 11:53:36;;;;;;;2.90;2.10;;;20.40;99.90;;;;;;5015153;28;20194;-78
2022/07/22 11:56:04;;;;;;;4.88;2.30;;;20.40;99.90;;;;;;5014928;28;20175;-78
2022/07/22 11:58:41;;;;;;;4.53;2.15;;;20.40;99.90;;;;;;5014862;28;20174;-78
2022/07/22 12:01:10;;;;;;;4.30;2.30;;;20.40;99.90;;;;;;5014299;28;20210;-78
2022/07/22 12:03:37;;;;;;;6.05;2.25;;;20.30;99.90;;;;;;5014691;28;20245;-77
2022/07/22 12:06:06;;;;;;;7.75;2.50;;;20.30;99.90;;;;;;5015329;28;20174;-79
2022/07/22 12:08:32;;;;;;;4.25;2.25;;;20.20;99.90;;;;;;5015558;28;20177;-80
2022/07/22 12:10:58;;;;;;;5.28;2.40;;;20.30;99.90;;;;;;5015121;28;20228;-79
2022/07/22 12:13:33;;;;;;;7.05;2.03;;;20.40;99.90;;;;;;5014232;28;20175;-78
2022/07/22 12:15:59;;;;;;;4.22;2.22;;;20.30;99.90;;;;;;5016346;28;20183;-79
2022/07/22 12:18:26;;;;;;;4.07;2.53;;;20.30;99.90;;;;;;5015780;28;20238;-80
2022/07/22 12:20:54;;;;;;;7.47;2.47;;;20.50;99.90;;;;;;5015866;28;20206;-79
2022/07/22 12:23:24;;;;;;;5.22;2.20;;;20.40;99.90;;;;;;5015713;28;20171;-80
2022/07/22 12:25:51;;;;;;;8.05;2.17;;;20.50;99.90;;;;;;5016455;28;20162;-79
2022/07/22 12:28:16;;;;;;;5.80;2.50;;;20.50;99.90;;;;;;5015734;28;20174;-79
2022/07/22 12:30:42;;;;;;;4.10;2.05;;;20.50;99.90;;;;;;5016136;28;20174;-79
2022/07/22 12:33:18;;;;;;;6.10;2.50;;;20.60;99.90;;;;;;5015397;28;20252;-79
2022/07/22 12:35:57;;;;;;;3.92;2.28;;;20.80;99.90;;;;;;5016214;28;20187;-79
2022/07/22 12:38:22;;;;;;;6.72;2.63;;;20.60;99.90;;;;;;5017485;28;20208;-79
2022/07/22 12:40:48;;;;;;;6.78;2.58;;;20.30;99.90;;;;;;5016782;28;20579;-79